createdAt,value
2019-03-15T00:01:17.849Z,6.20
2019-03-15T00:06:03.630Z,6.00
2019-03-15T00:10:49.339Z,5.90
2019-03-15T00:15:35.305Z,6.00
2019-03-15T00:20:21.012Z,5.90
2019-03-15T00:25:07.121Z,6.00
2019-03-15T00:29:52.841Z,6.00
2019-03-15T00:34:38.598Z,6.00
2019-03-15T00:39:25.073Z,6.00
2019-03-15T00:44:10.955Z,6.00
2019-03-15T00:48:56.689Z,5.90
2019-03-15T00:53:43.871Z,5.90
2019-03-15T00:58:31.096Z,6.10
2019-03-15T01:03:18.305Z,6.40
2019-03-15T01:08:04.094Z,6.40
2019-03-15T01:12:50.974Z,6.40
2019-03-15T01:17:36.954Z,6.30
2019-03-15T01:22:23.743Z,6.30
2019-03-15T01:27:09.564Z,6.20
2019-03-15T01:31:55.274Z,6.20
2019-03-15T01:36:42.834Z,6.00
2019-03-15T01:41:28.627Z,5.90
2019-03-15T01:46:15.119Z,5.80
2019-03-15T01:51:02.403Z,5.70
2019-03-15T01:55:48.202Z,5.60
2019-03-15T02:00:34.001Z,5.80
2019-03-15T02:05:19.958Z,5.70
2019-03-15T02:10:06.707Z,5.70
2019-03-15T02:14:53.787Z,5.80
2019-03-15T02:19:41.060Z,5.80
2019-03-15T02:24:26.847Z,5.70
2019-03-15T02:29:13.413Z,5.60
2019-03-15T02:34:00.161Z,5.40
2019-03-15T02:38:46.071Z,5.40
2019-03-15T02:43:31.898Z,5.30
2019-03-15T02:48:19.481Z,5.30
2019-03-15T02:53:05.155Z,5.30
2019-03-15T02:57:50.862Z,5.30
2019-03-15T03:02:36.703Z,5.20
2019-03-15T03:07:22.345Z,5.20
2019-03-15T03:12:08.183Z,5.10
2019-03-15T03:16:53.893Z,5.00
2019-03-15T03:21:39.581Z,5.00
2019-03-15T03:26:26.962Z,4.90
2019-03-15T03:31:15.554Z,5.00
2019-03-15T03:36:00.988Z,5.10
2019-03-15T03:40:46.716Z,5.10
2019-03-15T03:45:32.448Z,5.10
2019-03-15T03:50:18.131Z,5.10
2019-03-15T03:55:04.979Z,5.10
2019-03-15T03:59:51.591Z,5.10
2019-03-15T04:04:38.881Z,5.40
2019-03-15T04:09:25.577Z,5.40
2019-03-15T04:14:12.388Z,5.60
2019-03-15T04:18:58.174Z,5.60
2019-03-15T04:23:44.057Z,5.70
2019-03-15T04:28:29.721Z,5.80
2019-03-15T04:33:15.546Z,5.40
2019-03-15T04:38:01.238Z,5.30
2019-03-15T04:42:47.003Z,5.20
2019-03-15T04:47:32.703Z,5.20
2019-03-15T04:52:18.354Z,5.20
2019-03-15T04:57:04.202Z,5.20
2019-03-15T05:01:50.058Z,5.30
2019-03-15T05:06:35.695Z,5.10
2019-03-15T05:11:21.447Z,5.10
2019-03-15T05:16:07.274Z,5.10
2019-03-15T05:20:52.999Z,5.50
2019-03-15T05:25:38.737Z,5.40
2019-03-15T05:30:24.525Z,5.40
2019-03-15T05:35:10.520Z,5.40
2019-03-15T05:39:56.226Z,5.20
2019-03-15T05:44:42.042Z,5.40
2019-03-15T05:49:27.848Z,5.70
2019-03-15T05:54:13.652Z,5.80
2019-03-15T05:58:59.626Z,5.80
2019-03-15T06:03:48.978Z,6.30
2019-03-15T06:08:33.006Z,6.40
2019-03-15T06:13:18.851Z,6.30
2019-03-15T06:18:06.778Z,6.00
2019-03-15T06:22:52.041Z,5.80
2019-03-15T06:27:37.954Z,5.70
2019-03-15T06:32:23.719Z,5.60
2019-03-15T06:37:09.497Z,5.50
2019-03-15T06:41:55.254Z,5.50
2019-03-15T06:46:40.952Z,5.60
2019-03-15T06:51:26.769Z,5.60
2019-03-15T06:56:12.586Z,5.60
2019-03-15T07:00:58.425Z,5.50
2019-03-15T07:05:44.111Z,5.50
2019-03-15T07:10:29.840Z,5.50
2019-03-15T07:15:15.774Z,5.40
2019-03-15T07:20:01.572Z,5.30
2019-03-15T07:24:47.308Z,5.30
2019-03-15T07:29:33.126Z,5.30
2019-03-15T07:34:18.843Z,5.20
2019-03-15T07:39:05.988Z,5.10
2019-03-15T07:43:51.690Z,5.10
2019-03-15T07:48:37.618Z,5.10
2019-03-15T07:53:30.761Z,5.10
2019-03-15T07:58:16.837Z,5.00
2019-03-15T08:03:03.828Z,5.00
2019-03-15T08:07:52.021Z,4.80
2019-03-15T08:12:39.009Z,4.70
2019-03-15T08:17:25.010Z,4.60
2019-03-15T08:22:11.229Z,4.50
2019-03-15T08:26:57.707Z,4.40
2019-03-15T08:31:46.857Z,4.30
2019-03-15T08:36:31.623Z,4.30
2019-03-15T08:41:17.894Z,4.20
2019-03-15T08:46:03.982Z,4.30
2019-03-15T08:50:50.164Z,4.30
2019-03-15T08:55:39.607Z,4.30
2019-03-15T09:00:24.130Z,4.30
2019-03-15T09:05:10.659Z,4.30
2019-03-15T09:09:56.398Z,4.30
2019-03-15T09:14:42.281Z,4.40
2019-03-15T09:19:28.527Z,4.40
2019-03-15T09:24:14.398Z,4.40
2019-03-15T09:29:00.256Z,4.40
2019-03-15T09:33:46.347Z,4.40
2019-03-15T09:38:32.453Z,4.50
2019-03-15T09:43:18.844Z,4.50
2019-03-15T09:48:04.862Z,4.50
2019-03-15T09:52:50.683Z,4.50
2019-03-15T09:57:36.574Z,4.50
2019-03-15T10:02:30.040Z,4.50
2019-03-15T10:07:10.602Z,4.50
2019-03-15T10:11:58.185Z,4.50
2019-03-15T10:16:44.061Z,4.50
2019-03-15T10:21:30.102Z,4.50
2019-03-15T10:26:16.066Z,4.60
2019-03-15T10:31:02.338Z,4.60
2019-03-15T10:35:48.115Z,4.60
2019-03-15T10:40:34.079Z,4.80
2019-03-15T10:45:19.862Z,4.80
2019-03-15T10:50:06.048Z,4.80
2019-03-15T10:54:51.849Z,4.80
2019-03-15T10:59:37.760Z,4.70
2019-03-15T11:04:23.587Z,4.70
2019-03-15T11:09:09.393Z,4.70
2019-03-15T11:13:55.743Z,4.70
2019-03-15T11:18:41.953Z,4.80
2019-03-15T11:23:27.669Z,4.80
2019-03-15T11:28:13.714Z,4.80
2019-03-15T11:32:59.866Z,4.90
2019-03-15T11:37:45.937Z,4.80
2019-03-15T11:42:35.295Z,4.80
2019-03-15T11:47:21.872Z,4.80
2019-03-15T11:52:09.157Z,4.90
2019-03-15T11:56:55.212Z,4.90
2019-03-15T12:01:41.647Z,4.90
2019-03-15T12:06:27.840Z,4.90
2019-03-15T12:11:14.086Z,4.90
2019-03-15T12:16:00.141Z,5.00
2019-03-15T12:20:49.175Z,5.00
2019-03-15T12:25:34.371Z,5.00
2019-03-15T12:30:20.729Z,5.00
2019-03-15T12:35:08.978Z,5.20
2019-03-15T12:39:55.123Z,5.00
2019-03-15T12:44:41.030Z,5.10
2019-03-15T12:49:27.297Z,5.20
2019-03-15T12:54:13.048Z,5.30
2019-03-15T12:58:59.040Z,5.40
2019-03-15T13:03:45.456Z,5.40
2019-03-15T13:08:31.458Z,5.40
2019-03-15T13:13:17.388Z,5.40
2019-03-15T13:18:03.328Z,5.50
2019-03-15T13:22:49.337Z,5.50
2019-03-15T13:27:35.400Z,5.50
2019-03-15T13:32:22.069Z,5.50
2019-03-15T13:37:10.932Z,5.50
2019-03-15T13:41:57.624Z,5.50
2019-03-15T13:46:44.253Z,5.50
2019-03-15T13:51:30.275Z,5.70
2019-03-15T13:56:16.548Z,5.70
2019-03-15T14:01:02.843Z,5.80
2019-03-15T14:05:49.515Z,5.90
2019-03-15T14:10:48.327Z,5.90
2019-03-15T14:15:22.867Z,6.10
2019-03-15T14:20:09.765Z,6.00
2019-03-15T14:24:55.784Z,6.20
2019-03-15T14:29:41.767Z,6.20
2019-03-15T14:34:27.781Z,6.40
2019-03-15T14:39:13.923Z,6.70
2019-03-15T14:43:59.872Z,6.60
2019-03-15T14:48:45.741Z,6.70
2019-03-15T14:53:31.791Z,6.70
2019-03-15T14:58:17.780Z,6.60
2019-03-15T15:03:04.492Z,6.60
2019-03-15T15:07:50.547Z,6.80
2019-03-15T15:12:36.675Z,6.80
2019-03-15T15:17:22.919Z,6.80
2019-03-15T15:22:09.495Z,6.80
2019-03-15T15:26:55.534Z,6.70
2019-03-15T15:31:41.350Z,6.70
2019-03-15T15:36:27.424Z,6.60
2019-03-15T15:41:13.303Z,6.70
2019-03-15T15:45:59.284Z,6.70
2019-03-15T15:50:45.428Z,6.70
2019-03-15T15:55:31.433Z,6.70
2019-03-15T16:00:18.468Z,6.90
2019-03-15T16:05:04.543Z,7.00
2019-03-15T16:09:50.693Z,6.90
2019-03-15T16:14:36.450Z,7.00
2019-03-15T16:19:22.665Z,6.90
2019-03-15T16:24:08.385Z,7.10
2019-03-15T16:28:54.525Z,7.30
2019-03-15T16:33:40.572Z,7.00
2019-03-15T16:38:26.814Z,7.00
2019-03-15T16:43:13.375Z,7.10
2019-03-15T16:47:59.640Z,8.00
2019-03-15T16:52:45.746Z,7.30
2019-03-15T16:57:32.243Z,7.00
2019-03-15T17:02:18.843Z,7.30
2019-03-15T17:07:05.829Z,7.50
2019-03-15T17:11:51.658Z,7.00
2019-03-15T17:16:37.440Z,7.20
2019-03-15T17:21:23.345Z,7.30
2019-03-15T17:26:09.273Z,7.30
2019-03-15T17:31:08.769Z,7.40
2019-03-15T17:35:42.931Z,7.40
2019-03-15T17:40:28.928Z,7.70
2019-03-15T17:45:15.235Z,7.70
2019-03-15T17:50:02.340Z,8.50
2019-03-15T17:54:48.111Z,8.20
2019-03-15T17:59:33.865Z,7.60
2019-03-15T18:04:19.829Z,8.10
2019-03-15T18:09:07.162Z,8.50
2019-03-15T18:13:56.822Z,8.00
2019-03-15T18:18:43.969Z,8.30
2019-03-15T18:23:29.970Z,8.10
2019-03-15T18:28:15.809Z,8.30
2019-03-15T18:33:01.548Z,8.20
2019-03-15T18:37:47.358Z,8.00
2019-03-15T18:42:33.160Z,7.80
2019-03-15T18:47:18.986Z,8.00
2019-03-15T18:52:06.089Z,8.50
2019-03-15T18:56:52.134Z,8.10
2019-03-15T19:01:39.531Z,8.40
2019-03-15T19:06:26.033Z,8.50
2019-03-15T19:11:12.797Z,8.70
2019-03-15T19:15:59.294Z,8.90
2019-03-15T19:20:45.873Z,9.30
2019-03-15T19:25:32.647Z,9.70
2019-03-15T19:30:19.034Z,9.00
2019-03-15T19:35:05.390Z,8.70
2019-03-15T19:39:51.754Z,8.50
2019-03-15T19:44:38.219Z,8.30
2019-03-15T19:49:24.865Z,8.40
2019-03-15T19:54:11.449Z,8.20
2019-03-15T19:58:58.136Z,8.00
2019-03-15T20:03:48.688Z,8.10
2019-03-15T20:08:37.516Z,8.00
2019-03-15T20:13:24.839Z,8.20
2019-03-15T20:18:10.762Z,8.30
2019-03-15T20:22:57.111Z,8.30
2019-03-15T20:27:43.747Z,8.40
2019-03-15T20:32:30.654Z,8.40
2019-03-15T20:37:17.364Z,8.30
2019-03-15T20:42:04.008Z,8.40
2019-03-15T20:46:50.879Z,8.70
2019-03-15T20:51:38.537Z,8.50
2019-03-15T20:56:25.702Z,8.60
2019-03-15T21:01:13.072Z,8.70
2019-03-15T21:05:59.719Z,8.50
2019-03-15T21:10:46.471Z,8.60
2019-03-15T21:15:33.442Z,8.90
2019-03-15T21:20:22.633Z,9.10
2019-03-15T21:25:10.535Z,10.10
2019-03-15T21:29:57.043Z,9.90
2019-03-15T21:34:43.845Z,10.00
2019-03-15T21:39:30.684Z,9.80
2019-03-15T21:44:17.568Z,9.70
2019-03-15T21:49:03.338Z,9.60
2019-03-15T21:53:49.612Z,9.40
2019-03-15T21:58:35.452Z,9.30
2019-03-15T22:03:21.576Z,9.30
2019-03-15T22:08:07.640Z,9.10
2019-03-15T22:12:53.560Z,9.00
2019-03-15T22:17:39.585Z,9.00
2019-03-15T22:22:25.730Z,8.70
2019-03-15T22:27:11.639Z,8.50
2019-03-15T22:32:00.738Z,8.30
2019-03-15T22:36:46.681Z,8.10
2019-03-15T22:41:35.661Z,8.00
2019-03-15T22:46:19.887Z,8.10
2019-03-15T22:51:06.164Z,8.30
2019-03-15T22:55:51.955Z,8.20
2019-03-15T23:00:39.347Z,8.10
2019-03-15T23:05:25.190Z,8.00
2019-03-15T23:10:11.143Z,8.00
2019-03-15T23:14:56.998Z,8.10
2019-03-15T23:19:42.721Z,8.10
2019-03-15T23:24:28.748Z,8.20
2019-03-15T23:29:14.514Z,8.40
2019-03-15T23:34:00.251Z,8.30
2019-03-15T23:38:45.978Z,8.30
2019-03-15T23:43:31.741Z,8.20
2019-03-15T23:48:17.408Z,8.30
2019-03-15T23:53:03.156Z,8.40
2019-03-15T23:57:48.839Z,8.30
